createdAt,value
2023-01-12T00:01:27.592Z,41.61
2023-01-12T00:03:55.138Z,41.52
2023-01-12T00:06:41.261Z,41.78
2023-01-12T00:09:08.962Z,41.73
2023-01-12T00:11:36.636Z,41.79
2023-01-12T00:14:04.340Z,41.39
2023-01-12T00:16:34.740Z,41.31
2023-01-12T00:19:03.248Z,41.75
2023-01-12T00:21:34.392Z,42.09
2023-01-12T00:24:01.791Z,42.46
2023-01-12T00:26:28.955Z,42.52
2023-01-12T00:28:56.113Z,42.30
2023-01-12T00:31:23.619Z,41.97
2023-01-12T00:33:50.763Z,42.11
2023-01-12T00:36:17.923Z,41.67
2023-01-12T00:38:45.412Z,41.91
2023-01-12T00:41:32.972Z,42.03
2023-01-12T00:44:19.108Z,42.13
2023-01-12T00:46:46.264Z,42.35
2023-01-12T00:49:13.851Z,42.25
2023-01-12T00:51:41.199Z,42.38
2023-01-12T00:54:08.459Z,42.40
2023-01-12T00:56:36.345Z,42.21
2023-01-12T00:59:03.733Z,41.88
2023-01-12T01:01:33.006Z,42.09
2023-01-12T01:04:00.702Z,42.12
2023-01-12T01:06:27.905Z,41.94
2023-01-12T01:08:56.533Z,41.92
2023-01-12T01:11:24.042Z,41.85
2023-01-12T01:13:51.787Z,41.85
2023-01-12T01:16:19.133Z,42.36
2023-01-12T01:18:46.604Z,41.70
2023-01-12T01:21:14.408Z,42.18
2023-01-12T01:23:41.768Z,42.27
2023-01-12T01:26:19.600Z,42.66
2023-01-12T01:28:46.750Z,42.72
2023-01-12T01:31:18.386Z,43.17
2023-01-12T01:33:45.586Z,43.08
2023-01-12T01:36:12.948Z,43.25
2023-01-12T01:38:40.668Z,43.11
2023-01-12T01:41:07.813Z,43.19
2023-01-12T01:43:56.790Z,43.61
2023-01-12T01:46:30.315Z,43.35
2023-01-12T01:48:58.105Z,44.08
2023-01-12T01:51:25.539Z,43.59
2023-01-12T01:53:52.686Z,43.84
2023-01-12T01:56:25.685Z,44.62
2023-01-12T01:58:53.215Z,44.34
2023-01-12T02:01:20.455Z,44.33
2023-01-12T02:03:47.878Z,44.17
2023-01-12T02:06:15.276Z,43.68
2023-01-12T02:08:46.975Z,43.08
2023-01-12T02:11:35.549Z,43.16
2023-01-12T02:14:21.465Z,43.24
2023-01-12T02:16:55.111Z,43.01
2023-01-12T02:19:22.233Z,46.93
2023-01-12T02:21:52.414Z,45.11
2023-01-12T02:24:25.724Z,44.75
2023-01-12T02:26:59.177Z,44.39
2023-01-12T02:29:41.624Z,44.18
2023-01-12T02:32:24.041Z,43.42
2023-01-12T02:34:56.988Z,43.86
2023-01-12T02:37:39.157Z,43.69
2023-01-12T02:40:07.618Z,43.34
2023-01-12T02:42:41.191Z,42.83
2023-01-12T02:45:27.400Z,43.08
2023-01-12T02:48:00.895Z,43.07
2023-01-12T02:50:40.883Z,42.91
2023-01-12T02:53:10.342Z,42.65
2023-01-12T02:55:37.503Z,42.40
2023-01-12T02:58:04.730Z,42.31
2023-01-12T03:00:32.179Z,42.69
2023-01-12T03:02:59.354Z,42.58
2023-01-12T03:05:26.699Z,42.39
2023-01-12T03:07:59.087Z,42.43
2023-01-12T03:10:35.533Z,42.49
2023-01-12T03:13:06.346Z,42.28
2023-01-12T03:15:37.738Z,42.28
2023-01-12T03:18:15.063Z,42.44
2023-01-12T03:20:50.396Z,43.33
2023-01-12T03:23:19.960Z,45.52
2023-01-12T03:25:47.232Z,43.89
2023-01-12T03:28:14.866Z,43.53
2023-01-12T03:30:43.731Z,43.17
2023-01-12T03:33:10.878Z,43.03
2023-01-12T03:35:50.436Z,42.93
2023-01-12T03:38:38.147Z,43.67
2023-01-12T03:41:07.068Z,44.79
2023-01-12T03:43:38.820Z,44.14
2023-01-12T03:46:09.101Z,44.11
2023-01-12T03:48:39.550Z,43.48
2023-01-12T03:51:25.461Z,44.19
2023-01-12T03:53:53.247Z,43.86
2023-01-12T03:56:21.285Z,44.08
2023-01-12T03:58:48.565Z,43.73
2023-01-12T04:01:16.182Z,43.69
2023-01-12T04:03:44.570Z,43.18
2023-01-12T04:06:11.812Z,43.24
2023-01-12T04:08:38.949Z,43.05
2023-01-12T04:11:27.018Z,43.16
2023-01-12T04:13:54.183Z,43.06
2023-01-12T04:16:21.642Z,43.14
2023-01-12T04:18:48.796Z,43.99
2023-01-12T04:21:34.850Z,43.78
2023-01-12T04:24:02.345Z,43.35
2023-01-12T04:26:29.510Z,42.88
2023-01-12T04:28:56.658Z,42.60
2023-01-12T04:31:24.160Z,42.91
2023-01-12T04:33:51.342Z,42.55
2023-01-12T04:36:18.500Z,42.35
2023-01-12T04:38:47.393Z,42.48
2023-01-12T04:41:14.540Z,41.57
2023-01-12T04:43:41.726Z,43.24
2023-01-12T04:46:10.514Z,43.07
2023-01-12T04:48:43.559Z,43.69
2023-01-12T04:51:11.229Z,43.23
2023-01-12T04:53:38.455Z,43.28
2023-01-12T04:56:06.037Z,43.13
2023-01-12T04:58:33.497Z,42.89
2023-01-12T05:01:10.799Z,44.17
2023-01-12T05:03:38.609Z,43.52
2023-01-12T05:06:06.084Z,43.34
2023-01-12T05:08:51.631Z,43.48
2023-01-12T05:11:21.119Z,43.25
2023-01-12T05:13:48.403Z,43.27
2023-01-12T05:16:16.616Z,43.35
2023-01-12T05:18:45.083Z,43.27
2023-01-12T05:21:13.135Z,43.75
2023-01-12T05:23:40.343Z,43.39
2023-01-12T05:26:07.919Z,43.78
2023-01-12T05:28:35.092Z,45.06
2023-01-12T05:31:03.595Z,44.70
2023-01-12T05:33:31.254Z,44.06
2023-01-12T05:35:58.523Z,46.01
2023-01-12T05:38:25.658Z,45.50
2023-01-12T05:40:53.079Z,44.53
2023-01-12T05:43:39.045Z,44.81
2023-01-12T05:46:07.887Z,49.73
2023-01-12T05:48:35.085Z,47.00
2023-01-12T05:51:02.662Z,46.10
2023-01-12T05:53:30.332Z,46.07
2023-01-12T05:55:57.529Z,44.46
2023-01-12T05:58:24.821Z,44.98
2023-01-12T06:00:52.281Z,45.36
2023-01-12T06:03:21.777Z,45.30
2023-01-12T06:05:55.930Z,45.92
2023-01-12T06:08:23.458Z,45.37
2023-01-12T06:10:50.596Z,44.87
2023-01-12T06:13:36.575Z,44.82
2023-01-12T06:16:05.385Z,45.08
2023-01-12T06:18:36.354Z,45.09
2023-01-12T06:21:04.303Z,46.04
2023-01-12T06:23:35.642Z,44.34
2023-01-12T06:26:04.234Z,44.79
2023-01-12T06:28:31.403Z,45.21
2023-01-12T06:30:59.282Z,44.95
2023-01-12T06:33:27.450Z,44.90
2023-01-12T06:35:54.837Z,45.38
2023-01-12T06:38:23.190Z,44.95
2023-01-12T06:40:50.970Z,44.40
2023-01-12T06:43:18.410Z,45.36
2023-01-12T06:45:45.918Z,45.16
2023-01-12T06:48:13.360Z,44.73
2023-01-12T06:50:40.489Z,43.75
2023-01-12T06:53:08.025Z,45.99
2023-01-12T06:55:35.452Z,44.75
2023-01-12T06:58:03.923Z,44.96
2023-01-12T07:00:31.659Z,44.64
2023-01-12T07:02:59.401Z,44.95
2023-01-12T07:05:26.626Z,44.84
2023-01-12T07:07:57.233Z,44.62
2023-01-12T07:10:24.668Z,44.26
2023-01-12T07:12:51.902Z,43.84
2023-01-12T07:15:19.060Z,44.63
2023-01-12T07:17:46.485Z,45.97
2023-01-12T07:20:13.666Z,45.40
2023-01-12T07:22:40.795Z,45.21
2023-01-12T07:25:08.375Z,46.12
2023-01-12T07:27:35.499Z,44.41
2023-01-12T07:30:02.668Z,44.38
2023-01-12T07:32:30.153Z,45.86
2023-01-12T07:34:57.328Z,44.40
2023-01-12T07:37:24.467Z,44.76
2023-01-12T07:39:51.875Z,44.25
2023-01-12T07:42:24.958Z,43.38
2023-01-12T07:44:52.624Z,43.78
2023-01-12T07:47:19.806Z,43.67
2023-01-12T07:49:47.007Z,43.31
2023-01-12T07:52:14.607Z,43.99
2023-01-12T07:54:41.761Z,43.15
2023-01-12T07:57:09.901Z,42.83
2023-01-12T07:59:37.348Z,42.60
2023-01-12T08:02:04.547Z,42.57
2023-01-12T08:04:32.049Z,42.57
2023-01-12T08:06:59.233Z,42.80
2023-01-12T08:09:28.923Z,44.73
2023-01-12T08:11:56.377Z,43.83
2023-01-12T08:14:24.653Z,44.14
2023-01-12T08:16:51.963Z,43.68
2023-01-12T08:19:20.727Z,43.76
2023-01-12T08:21:58.804Z,43.87
2023-01-12T08:24:28.890Z,44.09
2023-01-12T08:26:56.529Z,44.24
2023-01-12T08:29:30.645Z,43.78
2023-01-12T08:34:40.179Z,48.38
2023-01-12T08:37:08.635Z,48.39
2023-01-12T08:39:35.878Z,49.58
2023-01-12T08:42:03.439Z,47.91
2023-01-12T08:44:37.015Z,50.27
2023-01-12T08:47:04.725Z,49.30
2023-01-12T08:49:32.351Z,49.34
2023-01-12T08:51:59.488Z,48.69
2023-01-12T08:54:26.873Z,48.17
2023-01-12T08:56:54.854Z,50.77
2023-01-12T08:59:22.102Z,50.36
2023-01-12T09:01:49.392Z,50.57
2023-01-12T09:04:16.912Z,49.92
2023-01-12T09:06:44.689Z,54.23
2023-01-12T09:09:13.227Z,52.38
2023-01-12T09:11:41.412Z,55.34
2023-01-12T09:14:09.041Z,52.47
2023-01-12T09:16:36.531Z,52.40
2023-01-12T09:19:04.221Z,53.09
2023-01-12T09:21:31.833Z,52.28
2023-01-12T09:23:59.030Z,52.52
2023-01-12T09:26:31.370Z,53.10
2023-01-12T09:28:59.356Z,54.56
2023-01-12T09:31:27.496Z,54.07
2023-01-12T09:33:55.263Z,53.43
2023-01-12T09:36:23.392Z,56.71
2023-01-12T09:38:50.970Z,56.50
2023-01-12T09:41:39.766Z,58.91
2023-01-12T09:44:43.653Z,56.67
2023-01-12T09:47:20.083Z,56.01
2023-01-12T09:50:08.070Z,54.50
2023-01-12T09:52:45.601Z,52.30
2023-01-12T09:55:22.720Z,52.16
2023-01-12T09:57:49.879Z,54.79
2023-01-12T10:00:17.892Z,54.86
2023-01-12T10:02:46.659Z,51.42
2023-01-12T10:05:17.153Z,52.66
2023-01-12T10:07:44.339Z,55.77
2023-01-12T10:10:14.196Z,54.37
2023-01-12T10:12:44.422Z,56.08
2023-01-12T10:15:14.897Z,59.14
2023-01-12T10:17:51.268Z,56.93
2023-01-12T10:20:38.784Z,57.69
2023-01-12T10:23:08.954Z,54.98
2023-01-12T10:25:49.506Z,54.96
2023-01-12T10:28:19.797Z,53.38
2023-01-12T10:30:47.329Z,52.56
2023-01-12T10:33:16.164Z,56.79
2023-01-12T10:35:49.587Z,58.28
2023-01-12T10:38:38.236Z,54.25
2023-01-12T10:41:18.128Z,55.00
2023-01-12T10:44:05.924Z,53.70
2023-01-12T10:46:33.754Z,51.66
2023-01-12T10:49:20.079Z,55.51
2023-01-12T10:51:51.545Z,54.47
2023-01-12T10:54:30.389Z,52.80
2023-01-12T10:57:00.615Z,54.80
2023-01-12T10:59:29.506Z,53.71
2023-01-12T11:02:06.806Z,52.50
2023-01-12T11:04:52.833Z,54.99
2023-01-12T11:07:22.827Z,54.92
2023-01-12T11:09:50.303Z,52.39
2023-01-12T11:12:20.410Z,53.69
2023-01-12T11:15:02.662Z,53.55
2023-01-12T11:17:50.095Z,54.79
2023-01-12T11:20:39.559Z,55.87
2023-01-12T11:23:11.068Z,56.12
2023-01-12T11:25:45.392Z,56.01
2023-01-12T11:28:14.614Z,55.65
2023-01-12T11:30:44.427Z,58.08
2023-01-12T11:33:30.485Z,58.99
2023-01-12T11:35:57.925Z,57.54
2023-01-12T11:38:27.392Z,58.69
2023-01-12T11:40:58.520Z,59.46
2023-01-12T11:43:50.538Z,55.42
2023-01-12T11:46:20.909Z,54.51
2023-01-12T11:48:51.452Z,53.72
2023-01-12T11:51:18.571Z,53.56
2023-01-12T11:53:46.004Z,53.09
2023-01-12T11:56:28.664Z,52.45
2023-01-12T11:59:16.076Z,53.29
2023-01-12T12:01:58.873Z,52.80
2023-01-12T12:04:26.296Z,52.43
2023-01-12T12:06:56.863Z,51.84
2023-01-12T12:09:44.290Z,50.37
2023-01-12T12:12:20.577Z,54.73
2023-01-12T12:15:16.953Z,54.45
2023-01-12T12:17:47.366Z,51.95
2023-01-12T12:20:33.263Z,51.76
2023-01-12T12:23:19.225Z,52.33
2023-01-12T12:25:58.170Z,51.50
2023-01-12T12:28:28.696Z,50.57
2023-01-12T12:31:14.063Z,51.21
2023-01-12T12:33:50.254Z,50.29
2023-01-12T12:36:26.823Z,50.42
2023-01-12T12:38:54.247Z,50.68
2023-01-12T12:41:52.155Z,51.53
2023-01-12T12:44:44.347Z,51.85
2023-01-12T12:47:30.437Z,51.20
2023-01-12T12:49:57.863Z,50.22
2023-01-12T12:52:25.685Z,49.91
2023-01-12T12:54:53.010Z,49.61
2023-01-12T12:57:20.421Z,52.23
2023-01-12T12:59:54.926Z,53.53
2023-01-12T13:02:32.928Z,51.87
2023-01-12T13:05:04.496Z,50.55
2023-01-12T13:07:33.909Z,50.32
2023-01-12T13:10:10.535Z,49.88
2023-01-12T13:12:38.207Z,49.21
2023-01-12T13:15:14.602Z,51.33
2023-01-12T13:17:42.698Z,48.93
2023-01-12T13:20:26.026Z,48.05
2023-01-12T13:22:53.877Z,50.67
2023-01-12T13:25:22.198Z,48.75
2023-01-12T13:27:55.252Z,49.26
2023-01-12T13:30:23.120Z,49.20
2023-01-12T13:32:55.542Z,48.24
2023-01-12T13:35:24.024Z,47.85
2023-01-12T13:37:52.555Z,50.26
2023-01-12T13:40:26.586Z,49.39
2023-01-12T13:43:14.365Z,50.09
2023-01-12T13:45:57.147Z,49.63
2023-01-12T13:48:24.711Z,49.05
2023-01-12T13:50:52.741Z,48.93
2023-01-12T13:53:21.437Z,49.11
2023-01-12T13:56:02.023Z,47.40
2023-01-12T13:58:36.390Z,45.97
2023-01-12T14:01:04.893Z,46.60
2023-01-12T14:03:38.276Z,45.65
2023-01-12T14:06:15.052Z,45.85
2023-01-12T14:08:52.404Z,45.74
2023-01-12T14:11:40.117Z,45.15
2023-01-12T14:14:43.777Z,44.92
2023-01-12T14:17:48.330Z,44.34
2023-01-12T14:20:15.979Z,44.14
2023-01-12T14:22:43.340Z,44.35
2023-01-12T14:25:14.569Z,44.22
2023-01-12T14:27:48.617Z,44.02
2023-01-12T14:30:15.783Z,43.95
2023-01-12T14:32:43.857Z,43.47
2023-01-12T14:35:18.040Z,42.98
2023-01-12T14:37:49.877Z,42.81
2023-01-12T14:40:21.467Z,43.11
2023-01-12T14:43:07.859Z,42.73
2023-01-12T14:45:53.723Z,42.86
2023-01-12T14:48:25.643Z,42.58
2023-01-12T14:51:03.864Z,42.52
2023-01-12T14:53:32.472Z,42.01
2023-01-12T14:56:28.874Z,42.06
2023-01-12T14:59:05.036Z,42.67
2023-01-12T15:01:33.777Z,42.54
2023-01-12T15:04:01.449Z,43.07
2023-01-12T15:06:28.629Z,43.46
2023-01-12T15:08:57.144Z,43.50
2023-01-12T15:11:34.804Z,43.49
2023-01-12T15:14:02.876Z,43.54
2023-01-12T15:16:49.190Z,43.66
2023-01-12T15:19:35.044Z,42.98
2023-01-12T15:22:21.109Z,42.61
2023-01-12T15:25:06.980Z,42.60
2023-01-12T15:27:35.152Z,42.59
2023-01-12T15:30:02.319Z,42.52
2023-01-12T15:32:46.439Z,42.66
2023-01-12T15:35:18.285Z,42.51
2023-01-12T15:37:45.435Z,42.65
2023-01-12T15:40:15.416Z,42.99
2023-01-12T15:42:42.919Z,43.62
2023-01-12T15:45:22.989Z,43.20
2023-01-12T15:47:50.953Z,43.96
2023-01-12T15:50:18.118Z,44.58
2023-01-12T15:52:45.296Z,43.63
2023-01-12T15:55:15.459Z,44.59
2023-01-12T15:57:42.681Z,43.87
2023-01-12T16:00:17.338Z,43.76
2023-01-12T16:02:45.626Z,43.70
2023-01-12T16:05:13.460Z,43.23
2023-01-12T16:07:40.742Z,43.57
2023-01-12T16:10:08.619Z,43.40
2023-01-12T16:12:37.006Z,43.30
2023-01-12T16:15:04.844Z,43.34
2023-01-12T16:17:32.271Z,43.09
2023-01-12T16:19:59.513Z,43.17
2023-01-12T16:22:27.964Z,43.09
2023-01-12T16:24:56.195Z,42.95
2023-01-12T16:27:24.804Z,42.85
2023-01-12T16:29:52.062Z,43.07
2023-01-12T16:32:22.198Z,42.87
2023-01-12T16:34:49.355Z,42.86
2023-01-12T16:37:16.500Z,42.83
2023-01-12T16:39:44.029Z,42.94
2023-01-12T16:42:11.203Z,42.95
2023-01-12T16:44:38.868Z,42.77
2023-01-12T16:47:06.887Z,42.68
2023-01-12T16:49:37.321Z,42.62
2023-01-12T16:52:04.857Z,42.65
2023-01-12T16:54:33.419Z,42.70
2023-01-12T16:57:00.578Z,42.96
2023-01-12T16:59:28.656Z,42.86
2023-01-12T17:01:58.659Z,42.74
2023-01-12T17:04:26.116Z,42.66
2023-01-12T17:06:53.419Z,42.64
2023-01-12T17:09:21.126Z,42.62
2023-01-12T17:11:49.609Z,42.79
2023-01-12T17:14:24.122Z,43.39
2023-01-12T17:16:52.508Z,43.01
2023-01-12T17:19:20.339Z,43.34
2023-01-12T17:21:47.774Z,43.29
2023-01-12T17:24:18.380Z,43.08
2023-01-12T17:26:45.711Z,42.93
2023-01-12T17:29:13.220Z,42.96
2023-01-12T17:31:41.046Z,42.97
2023-01-12T17:34:08.985Z,43.02
2023-01-12T17:36:36.239Z,43.09
2023-01-12T17:39:03.892Z,43.31
2023-01-12T17:41:50.444Z,43.61
2023-01-12T17:44:18.063Z,43.31
2023-01-12T17:46:45.460Z,43.54
2023-01-12T17:49:14.132Z,43.73
2023-01-12T17:51:41.652Z,43.62
2023-01-12T17:54:11.347Z,43.09
2023-01-12T17:56:38.565Z,44.03
2023-01-12T17:59:06.429Z,43.51
2023-01-12T18:01:34.784Z,43.18
2023-01-12T18:04:02.477Z,43.01
2023-01-12T18:06:29.680Z,42.90
2023-01-12T18:08:57.199Z,43.07
2023-01-12T18:11:24.922Z,43.02
2023-01-12T18:13:52.270Z,42.96
2023-01-12T18:16:19.819Z,42.91
2023-01-12T18:18:47.405Z,42.95
2023-01-12T18:21:17.008Z,42.55
2023-01-12T18:23:44.918Z,42.44
2023-01-12T18:26:14.011Z,42.61
2023-01-12T18:28:42.192Z,42.94
2023-01-12T18:31:10.522Z,42.93
2023-01-12T18:33:39.927Z,42.22
2023-01-12T18:36:11.321Z,42.11
2023-01-12T18:38:42.329Z,42.21
2023-01-12T18:41:28.136Z,42.16
2023-01-12T18:43:56.538Z,42.62
2023-01-12T18:46:44.137Z,42.79
2023-01-12T18:49:12.285Z,42.26
2023-01-12T18:51:58.480Z,42.88
2023-01-12T18:54:27.119Z,42.73
2023-01-12T18:56:54.675Z,42.69
2023-01-12T18:59:22.435Z,43.35
2023-01-12T19:01:50.395Z,43.71
2023-01-12T19:04:28.086Z,43.29
2023-01-12T19:07:00.526Z,43.88
2023-01-12T19:09:35.093Z,43.92
2023-01-12T19:12:03.597Z,44.17
2023-01-12T19:14:50.114Z,43.38
2023-01-12T19:17:27.205Z,43.86
2023-01-12T19:19:54.666Z,43.92
2023-01-12T19:22:41.084Z,43.69
2023-01-12T19:25:29.896Z,43.40
2023-01-12T19:28:18.382Z,43.09
2023-01-12T19:30:47.141Z,42.74
2023-01-12T19:33:17.046Z,42.64
2023-01-12T19:35:45.538Z,42.52
2023-01-12T19:38:13.827Z,42.65
2023-01-12T19:40:47.031Z,42.94
2023-01-12T19:43:20.885Z,42.44
2023-01-12T19:45:50.082Z,42.21
2023-01-12T19:48:18.786Z,42.43
2023-01-12T19:50:47.550Z,42.49
2023-01-12T19:53:18.604Z,42.41
2023-01-12T19:55:47.043Z,42.31
2023-01-12T19:58:14.850Z,42.26
2023-01-12T20:00:45.336Z,42.33
2023-01-12T20:03:15.478Z,42.41
2023-01-12T20:05:44.917Z,42.10
2023-01-12T20:08:13.010Z,41.87
2023-01-12T20:10:41.542Z,42.03
2023-01-12T20:13:11.108Z,42.16
2023-01-12T20:15:40.497Z,42.16
2023-01-12T20:18:08.851Z,42.21
2023-01-12T20:20:37.268Z,42.06
2023-01-12T20:23:05.780Z,41.95
2023-01-12T20:25:33.785Z,42.13
2023-01-12T20:28:01.389Z,41.84
2023-01-12T20:30:37.962Z,41.39
2023-01-12T20:33:06.718Z,41.76
2023-01-12T20:35:35.935Z,41.81
2023-01-12T20:38:04.289Z,41.92
2023-01-12T20:40:31.739Z,41.77
2023-01-12T20:43:03.104Z,41.95
2023-01-12T20:45:30.921Z,42.06
2023-01-12T20:47:58.958Z,42.25
2023-01-12T20:50:26.402Z,41.92
2023-01-12T20:52:54.423Z,41.80
2023-01-12T20:55:22.141Z,41.70
2023-01-12T20:57:49.882Z,41.60
2023-01-12T21:00:17.574Z,41.66
2023-01-12T21:02:45.449Z,41.88
2023-01-12T21:05:12.845Z,41.65
2023-01-12T21:07:40.207Z,41.89
2023-01-12T21:10:09.115Z,41.91
2023-01-12T21:12:36.644Z,42.14
2023-01-12T21:15:04.533Z,42.11
2023-01-12T21:17:32.354Z,42.21
2023-01-12T21:19:59.734Z,41.98
2023-01-12T21:22:27.049Z,41.64
2023-01-12T21:24:54.883Z,41.58
2023-01-12T21:27:24.355Z,41.68
2023-01-12T21:29:51.693Z,41.95
2023-01-12T21:32:19.395Z,41.78
2023-01-12T21:34:48.924Z,42.15
2023-01-12T21:37:16.264Z,42.08
2023-01-12T21:39:43.788Z,42.32
2023-01-12T21:42:29.426Z,41.92
2023-01-12T21:44:56.875Z,41.88
2023-01-12T21:47:24.093Z,41.75
2023-01-12T21:49:51.578Z,42.05
2023-01-12T21:52:19.002Z,42.03
2023-01-12T21:54:46.166Z,41.52
2023-01-12T21:57:13.303Z,41.30
2023-01-12T21:59:40.758Z,41.61
2023-01-12T22:02:08.458Z,41.49
2023-01-12T22:04:35.966Z,41.22
2023-01-12T22:07:03.137Z,41.64
2023-01-12T22:09:30.421Z,41.76
2023-01-12T22:11:57.872Z,41.88
2023-01-12T22:14:25.224Z,41.81
2023-01-12T22:16:52.433Z,42.09
2023-01-12T22:19:19.867Z,41.90
2023-01-12T22:21:47.007Z,42.27
2023-01-12T22:24:14.147Z,42.08
2023-01-12T22:26:41.600Z,42.15
2023-01-12T22:29:08.812Z,42.77
2023-01-12T22:31:36.156Z,42.81
2023-01-12T22:34:06.915Z,43.39
2023-01-12T22:36:37.005Z,43.27
2023-01-12T22:39:04.538Z,43.03
2023-01-12T22:41:31.698Z,43.25
2023-01-12T22:43:59.555Z,43.54
2023-01-12T22:46:27.246Z,44.00
2023-01-12T22:48:59.381Z,44.20
2023-01-12T22:51:27.644Z,43.61
2023-01-12T22:53:55.573Z,43.43
2023-01-12T22:56:22.916Z,43.37
2023-01-12T22:58:51.388Z,43.46
2023-01-12T23:01:19.337Z,43.51
2023-01-12T23:03:48.265Z,43.66
2023-01-12T23:06:16.539Z,42.92
2023-01-12T23:08:44.308Z,42.73
2023-01-12T23:11:12.817Z,42.97
2023-01-12T23:13:41.680Z,42.82
2023-01-12T23:16:09.498Z,42.72
2023-01-12T23:18:37.501Z,42.71
2023-01-12T23:21:11.256Z,42.67
2023-01-12T23:23:38.720Z,42.42
2023-01-12T23:26:09.021Z,42.21
2023-01-12T23:28:38.989Z,42.33
2023-01-12T23:31:07.231Z,42.41
2023-01-12T23:33:35.621Z,42.61
2023-01-12T23:36:13.684Z,42.54
2023-01-12T23:38:41.279Z,42.24
2023-01-12T23:41:11.508Z,42.32
2023-01-12T23:43:38.939Z,42.42
2023-01-12T23:46:06.489Z,42.51
2023-01-12T23:48:33.845Z,42.50
2023-01-12T23:51:01.316Z,42.31
2023-01-12T23:53:29.121Z,42.53
2023-01-12T23:55:56.743Z,42.88
2023-01-12T23:58:23.991Z,42.53
